Shamokin, Pennsylvania
Current Conditions -  °F | °C
As of 11:53 AM on Wednesday 22 Oct 2014 (Local Time) from KSEG Reporting Station
Overcast Overcast  
Wind Chill: 53°   Ceiling: 1900
Heat Index: 53°   Visibility: 10mi
Dew Point: 46°   Wind: 16mph
Humidity: 77%   Direction: 360°N
Pressure: 30.04"   Gusts: 23mph
Location:  40.78°N, 76.56°W
Report Text: KSEG 221553Z AUTO 36014G20KT 10SM OVC019 12/08 A3004 RMK AO2 SLP172 T01170078
Loading
Personal Weather Stations






























Interactive Weather Map
Tropical Storm Tracking
New forecast layout! Learn more

10-Day Weather Forecast

Advertisements
Track Severe Weather on mobile